sensor_id;sensor_type;location;lat;lon;timestamp;pressure;altitude;pressure_sealevel;temperature;humidity
35443;BME280;21561;55.654;37.592;2023-02-14T00:00:56;98124.91;;;-0.06;100.00
35443;BME280;21561;55.654;37.592;2023-02-14T00:03:23;98126.59;;;-0.08;100.00
35443;BME280;21561;55.654;37.592;2023-02-14T00:05:50;98112.16;;;-0.07;100.00
35443;BME280;21561;55.654;37.592;2023-02-14T00:08:17;98118.94;;;-0.09;100.00
35443;BME280;21561;55.654;37.592;2023-02-14T00:10:44;98127.44;;;-0.10;100.00
35443;BME280;21561;55.654;37.592;2023-02-14T00:13:11;98127.44;;;-0.10;100.00
35443;BME280;21561;55.654;37.592;2023-02-14T00:15:38;98122.34;;;-0.07;100.00
35443;BME280;21561;55.654;37.592;2023-02-14T00:18:05;98127.44;;;-0.10;100.00
35443;BME280;21561;55.654;37.592;2023-02-14T00:20:32;98125.75;;;-0.08;100.00
35443;BME280;21561;55.654;37.592;2023-02-14T00:22:58;98129.97;;;-0.10;100.00
35443;BME280;21561;55.654;37.592;2023-02-14T00:25:26;98124.00;;;-0.12;100.00
35443;BME280;21561;55.654;37.592;2023-02-14T00:27:53;98129.16;;;-0.06;100.00
35443;BME280;21561;55.654;37.592;2023-02-14T00:30:21;98128.31;;;-0.07;100.00
35443;BME280;21561;55.654;37.592;2023-02-14T00:32:48;98128.25;;;-0.13;100.00
35443;BME280;21561;55.654;37.592;2023-02-14T00:35:15;98138.47;;;-0.10;100.00
35443;BME280;21561;55.654;37.592;2023-02-14T00:37:42;98124.00;;;-0.12;100.00
35443;BME280;21561;55.654;37.592;2023-02-14T00:40:09;98138.41;;;-0.14;100.00
35443;BME280;21561;55.654;37.592;2023-02-14T00:42:36;98130.75;;;-0.14;100.00
35443;BME280;21561;55.654;37.592;2023-02-14T00:45:03;98144.38;;;-0.15;100.00
35443;BME280;21561;55.654;37.592;2023-02-14T00:47:30;98135.88;;;-0.14;100.00
35443;BME280;21561;55.654;37.592;2023-02-14T00:49:57;98132.44;;;-0.16;100.00
35443;BME280;21561;55.654;37.592;2023-02-14T00:52:30;98144.41;;;-0.12;100.00
35443;BME280;21561;55.654;37.592;2023-02-14T00:54:57;98124.00;;;-0.12;100.00
35443;BME280;21561;55.654;37.592;2023-02-14T00:57:24;98130.75;;;-0.14;100.00
35443;BME280;21561;55.654;37.592;2023-02-14T00:59:51;98119.69;;;-0.20;100.00
35443;BME280;21561;55.654;37.592;2023-02-14T01:02:17;98141.78;;;-0.18;100.00
35443;BME280;21561;55.654;37.592;2023-02-14T01:04:44;98135.88;;;-0.14;100.00
35443;BME280;21561;55.654;37.592;2023-02-14T01:07:11;98147.78;;;-0.13;100.00
35443;BME280;21561;55.654;37.592;2023-02-14T01:09:38;98144.38;;;-0.15;100.00
35443;BME280;21561;55.654;37.592;2023-02-14T01:12:05;98144.38;;;-0.15;100.00
35443;BME280;21561;55.654;37.592;2023-02-14T01:14:32;98144.38;;;-0.15;100.00
35443;BME280;21561;55.654;37.592;2023-02-14T01:16:59;98148.63;;;-0.16;100.00
35443;BME280;21561;55.654;37.592;2023-02-14T01:19:26;98154.56;;;-0.15;100.00
35443;BME280;21561;55.654;37.592;2023-02-14T01:21:52;98150.28;;;-0.18;100.00
35443;BME280;21561;55.654;37.592;2023-02-14T01:24:19;98144.28;;;-0.22;100.00
35443;BME280;21561;55.654;37.592;2023-02-14T01:26:46;98142.56;;;-0.24;100.00
35443;BME280;21561;55.654;37.592;2023-02-14T01:29:13;98149.38;;;-0.25;100.00
35443;BME280;21561;55.654;37.592;2023-02-14T01:31:40;98128.09;;;-0.28;100.00
35443;BME280;21561;55.654;37.592;2023-02-14T01:34:07;98152.63;;;-0.35;100.00
35443;BME280;21561;55.654;37.592;2023-02-14T01:36:37;98161.06;;;-0.41;100.00
35443;BME280;21561;55.654;37.592;2023-02-14T01:39:10;98169.56;;;-0.40;100.00
35443;BME280;21561;55.654;37.592;2023-02-14T01:41:40;98180.56;;;-0.43;100.00
35443;BME280;21561;55.654;37.592;2023-02-14T01:46:42;98182.22;;;-0.46;100.00
35443;BME280;21561;55.654;37.592;2023-02-14T01:49:16;98179.69;;;-0.46;100.00
35443;BME280;21561;55.654;37.592;2023-02-14T01:51:49;98183.00;;;-0.50;100.00
35443;BME280;21561;55.654;37.592;2023-02-14T01:54:19;98183.00;;;-0.50;100.00
35443;BME280;21561;55.654;37.592;2023-02-14T01:56:51;98184.78;;;-0.46;100.00
35443;BME280;21561;55.654;37.592;2023-02-14T01:59:22;98177.97;;;-0.46;100.00
35443;BME280;21561;55.654;37.592;2023-02-14T02:01:50;98164.38;;;-0.46;100.00
35443;BME280;21561;55.654;37.592;2023-02-14T02:04:25;98174.50;;;-0.52;100.00
35443;BME280;21561;55.654;37.592;2023-02-14T02:06:57;98184.69;;;-0.52;100.00
35443;BME280;21561;55.654;37.592;2023-02-14T02:09:46;98176.25;;;-0.50;100.00
35443;BME280;21561;55.654;37.592;2023-02-14T02:12:14;98187.97;;;-0.63;100.00
35443;BME280;21561;55.654;37.592;2023-02-14T02:14:42;98187.03;;;-0.68;100.00
35443;BME280;21561;55.654;37.592;2023-02-14T02:17:31;98187.81;;;-0.70;100.00
35443;BME280;21561;55.654;37.592;2023-02-14T02:36:22;98192.75;;;-0.84;100.00
35443;BME280;21561;55.654;37.592;2023-02-14T02:39:11;98212.25;;;-0.83;100.00
35443;BME280;21561;55.654;37.592;2023-02-14T02:47:41;98200.53;;;-0.73;100.00
35443;BME280;21561;55.654;37.592;2023-02-14T02:50:26;98203.81;;;-0.79;100.00
35443;BME280;21561;55.654;37.592;2023-02-14T02:56:18;98210.63;;;-0.80;100.00
35443;BME280;21561;55.654;37.592;2023-02-14T02:59:19;98193.66;;;-0.78;100.00
35443;BME280;21561;55.654;37.592;2023-02-14T03:04:21;98192.88;;;-0.75;100.00
35443;BME280;21561;55.654;37.592;2023-02-14T03:07:07;98199.75;;;-0.69;100.00
35443;BME280;21561;55.654;37.592;2023-02-14T03:09:56;98203.19;;;-0.66;100.00
35443;BME280;21561;55.654;37.592;2023-02-14T03:12:40;98195.59;;;-0.63;100.00
35443;BME280;21561;55.654;37.592;2023-02-14T03:18:13;98199.94;;;-0.55;100.00
35443;BME280;21561;55.654;37.592;2023-02-14T03:20:54;98201.59;;;-0.58;100.00
35443;BME280;21561;55.654;37.592;2023-02-14T03:23:28;98208.59;;;-0.44;100.00
35443;BME280;21561;55.654;37.592;2023-02-14T03:26:17;98206.78;;;-0.51;100.00
35443;BME280;21561;55.654;37.592;2023-02-14T03:31:39;98203.38;;;-0.50;100.00
35443;BME280;21561;55.654;37.592;2023-02-14T03:34:35;98205.13;;;-0.49;100.00
35443;BME280;21561;55.654;37.592;2023-02-14T03:37:17;98205.19;;;-0.43;100.00
35443;BME280;21561;55.654;37.592;2023-02-14T03:40:00;98197.59;;;-0.40;100.00
35443;BME280;21561;55.654;37.592;2023-02-14T03:42:39;98206.91;;;-0.42;100.00
35443;BME280;21561;55.654;37.592;2023-02-14T03:45:12;98217.09;;;-0.42;100.00
35443;BME280;21561;55.654;37.592;2023-02-14T03:47:42;98215.38;;;-0.43;100.00
35443;BME280;21561;55.654;37.592;2023-02-14T03:50:19;98216.28;;;-0.41;100.00
35443;BME280;21561;55.654;37.592;2023-02-14T03:52:49;98219.72;;;-0.39;100.00
35443;BME280;21561;55.654;37.592;2023-02-14T03:55:23;98224.81;;;-0.36;100.00
35443;BME280;21561;55.654;37.592;2023-02-14T04:00:31;98227.31;;;-0.41;100.00
35443;BME280;21561;55.654;37.592;2023-02-14T04:03:05;98218.88;;;-0.36;100.00
35443;BME280;21561;55.654;37.592;2023-02-14T04:05:38;98223.94;;;-0.38;100.00
35443;BME280;21561;55.654;37.592;2023-02-14T04:08:10;98226.50;;;-0.38;100.00
35443;BME280;21561;55.654;37.592;2023-02-14T04:10:38;98231.56;;;-0.41;100.00
35443;BME280;21561;55.654;37.592;2023-02-14T04:13:05;98203.50;;;-0.44;100.00
35443;BME280;21561;55.654;37.592;2023-02-14T04:15:32;98231.13;;;-0.70;100.00
35443;BME280;21561;55.654;37.592;2023-02-14T04:17:59;98243.56;;;-0.90;100.00
35443;BME280;21561;55.654;37.592;2023-02-14T04:20:44;98250.31;;;-0.92;100.00
35443;BME280;21561;55.654;37.592;2023-02-14T04:23:11;98236.59;;;-1.01;100.00
35443;BME280;21561;55.654;37.592;2023-02-14T04:25:38;98249.31;;;-1.01;100.00
35443;BME280;21561;55.654;37.592;2023-02-14T04:28:08;98252.78;;;-0.99;100.00
35443;BME280;21561;55.654;37.592;2023-02-14T04:30:35;98242.63;;;-0.96;100.00
35443;BME280;21561;55.654;37.592;2023-02-14T04:33:03;98264.75;;;-0.93;100.00
35443;BME280;21561;55.654;37.592;2023-02-14T04:35:30;98252.84;;;-0.94;100.00
35443;BME280;21561;55.654;37.592;2023-02-14T04:37:56;98263.13;;;-0.89;100.00
35443;BME280;21561;55.654;37.592;2023-02-14T04:40:23;98268.22;;;-0.89;100.00
35443;BME280;21561;55.654;37.592;2023-02-14T04:42:50;98265.75;;;-0.83;100.00
35443;BME280;21561;55.654;37.592;2023-02-14T04:45:17;98264.06;;;-0.81;100.00
35443;BME280;21561;55.654;37.592;2023-02-14T04:47:45;98272.59;;;-0.79;100.00
35443;BME280;21561;55.654;37.592;2023-02-14T04:50:12;98266.78;;;-0.73;100.00
35443;BME280;21561;55.654;37.592;2023-02-14T04:52:39;98270.25;;;-0.67;100.00
35443;BME280;21561;55.654;37.592;2023-02-14T04:55:08;98281.31;;;-0.65;100.00
35443;BME280;21561;55.654;37.592;2023-02-14T04:57:35;98282.25;;;-0.60;100.00
35443;BME280;21561;55.654;37.592;2023-02-14T05:00:03;98284.06;;;-0.52;100.00
35443;BME280;21561;55.654;37.592;2023-02-14T05:02:32;98283.19;;;-0.54;100.00
35443;BME280;21561;55.654;37.592;2023-02-14T05:04:59;98298.53;;;-0.51;100.00
35443;BME280;21561;55.654;37.592;2023-02-14T05:07:25;98292.56;;;-0.50;100.00
35443;BME280;21561;55.654;37.592;2023-02-14T05:09:52;98294.28;;;-0.51;100.00
35443;BME280;21561;55.654;37.592;2023-02-14T05:12:19;98305.38;;;-0.47;100.00
35443;BME280;21561;55.654;37.592;2023-02-14T05:14:46;98304.56;;;-0.46;100.00
35443;BME280;21561;55.654;37.592;2023-02-14T05:17:13;98299.44;;;-0.48;100.00
35443;BME280;21561;55.654;37.592;2023-02-14T05:19:40;98311.28;;;-0.50;100.00
35443;BME280;21561;55.654;37.592;2023-02-14T05:22:07;98310.47;;;-0.47;100.00
35443;BME280;21561;55.654;37.592;2023-02-14T05:24:33;98327.47;;;-0.48;100.00
35443;BME280;21561;55.654;37.592;2023-02-14T05:27:00;98317.28;;;-0.46;100.00
35443;BME280;21561;55.654;37.592;2023-02-14T05:29:27;98319.00;;;-0.45;100.00
35443;BME280;21561;55.654;37.592;2023-02-14T05:31:54;98323.28;;;-0.43;100.00
35443;BME280;21561;55.654;37.592;2023-02-14T05:34:21;98330.97;;;-0.41;100.00
35443;BME280;21561;55.654;37.592;2023-02-14T05:36:48;98327.50;;;-0.43;100.00
35443;BME280;21561;55.654;37.592;2023-02-14T05:39:15;98325.00;;;-0.42;100.00
35443;BME280;21561;55.654;37.592;2023-02-14T05:41:42;98334.28;;;-0.45;100.00
35443;BME280;21561;55.654;37.592;2023-02-14T05:44:08;98315.56;;;-0.47;100.00
35443;BME280;21561;55.654;37.592;2023-02-14T05:46:35;98342.72;;;-0.49;100.00
35443;BME280;21561;55.654;37.592;2023-02-14T05:49:02;98327.50;;;-0.46;100.00
35443;BME280;21561;55.654;37.592;2023-02-14T05:51:29;98330.03;;;-0.46;100.00
35443;BME280;21561;55.654;37.592;2023-02-14T05:53:56;98329.31;;;-0.39;100.00
35443;BME280;21561;55.654;37.592;2023-02-14T05:56:25;98325.88;;;-0.41;100.00
35443;BME280;21561;55.654;37.592;2023-02-14T05:58:52;98333.53;;;-0.40;100.00
35443;BME280;21561;55.654;37.592;2023-02-14T06:01:20;98325.91;;;-0.38;100.00
35443;BME280;21561;55.654;37.592;2023-02-14T06:03:47;98328.47;;;-0.36;100.00
35443;BME280;21561;55.654;37.592;2023-02-14T06:06:14;98327.69;;;-0.34;100.00
35443;BME280;21561;55.654;37.592;2023-02-14T06:08:41;98334.41;;;-0.36;100.00
35443;BME280;21561;55.654;37.592;2023-02-14T06:11:08;98331.06;;;-0.35;100.00
35443;BME280;21561;55.654;37.592;2023-02-14T06:13:34;98328.44;;;-0.38;100.00
35443;BME280;21561;55.654;37.592;2023-02-14T06:16:03;98344.59;;;-0.39;100.00
35443;BME280;21561;55.654;37.592;2023-02-14T06:18:30;98336.06;;;-0.40;100.00
35443;BME280;21561;55.654;37.592;2023-02-14T06:20:57;98335.31;;;-0.35;100.00
35443;BME280;21561;55.654;37.592;2023-02-14T06:23:24;98336.06;;;-0.41;100.00
35443;BME280;21561;55.654;37.592;2023-02-14T06:25:51;98347.13;;;-0.41;100.00
35443;BME280;21561;55.654;37.592;2023-02-14T06:28:18;98348.84;;;-0.38;100.00
35443;BME280;21561;55.654;37.592;2023-02-14T06:30:46;98348.03;;;-0.37;100.00
35443;BME280;21561;55.654;37.592;2023-02-14T06:33:13;98344.56;;;-0.41;100.00
35443;BME280;21561;55.654;37.592;2023-02-14T06:35:40;98354.66;;;-0.45;100.00
35443;BME280;21561;55.654;37.592;2023-02-14T06:38:07;98351.25;;;-0.47;100.00
35443;BME280;21561;55.654;37.592;2023-02-14T06:40:34;98347.81;;;-0.49;100.00
35443;BME280;21561;55.654;37.592;2023-02-14T06:43:00;98347.75;;;-0.52;100.00
35443;BME280;21561;55.654;37.592;2023-02-14T06:45:27;98339.34;;;-0.48;100.00
35443;BME280;21561;55.654;37.592;2023-02-14T06:47:54;98356.25;;;-0.53;100.00
35443;BME280;21561;55.654;37.592;2023-02-14T06:50:21;98369.00;;;-0.53;100.00
35443;BME280;21561;55.654;37.592;2023-02-14T06:52:48;98346.16;;;-0.47;100.00
35443;BME280;21561;55.654;37.592;2023-02-14T06:55:17;98359.75;;;-0.48;100.00
35443;BME280;21561;55.654;37.592;2023-02-14T06:57:44;98366.53;;;-0.47;100.00
35443;BME280;21561;55.654;37.592;2023-02-14T07:00:11;98363.09;;;-0.49;100.00
35443;BME280;21561;55.654;37.592;2023-02-14T07:02:40;98371.66;;;-0.46;100.00
35443;BME280;21561;55.654;37.592;2023-02-14T07:05:07;98368.22;;;-0.49;100.00
35443;BME280;21561;55.654;37.592;2023-02-14T07:07:34;98373.31;;;-0.49;100.00
35443;BME280;21561;55.654;37.592;2023-02-14T07:10:01;98390.31;;;-0.48;100.00
35443;BME280;21561;55.654;37.592;2023-02-14T07:12:28;98385.94;;;-0.54;100.00
35443;BME280;21561;55.654;37.592;2023-02-14T07:14:55;98369.91;;;-0.50;100.00
35443;BME280;21561;55.654;37.592;2023-02-14T07:17:22;98385.94;;;-0.54;100.00
35443;BME280;21561;55.654;37.592;2023-02-14T07:19:49;98398.72;;;-0.52;100.00
35443;BME280;21561;55.654;37.592;2023-02-14T07:22:16;98390.31;;;-0.48;100.00
35443;BME280;21561;55.654;37.592;2023-02-14T07:24:43;98384.47;;;-0.43;100.00
35443;BME280;21561;55.654;37.592;2023-02-14T07:27:09;98394.78;;;-0.35;100.00
35443;BME280;21561;55.654;37.592;2023-02-14T07:29:36;98387.22;;;-0.29;100.00
35443;BME280;21561;55.654;37.592;2023-02-14T07:32:04;98397.53;;;-0.23;100.00
35443;BME280;21561;55.654;37.592;2023-02-14T07:34:31;98398.47;;;-0.17;100.00
35443;BME280;21561;55.654;37.592;2023-02-14T07:36:59;98415.50;;;-0.13;100.00
35443;BME280;21561;55.654;37.592;2023-02-14T07:39:26;98410.44;;;-0.12;100.00
35443;BME280;21561;55.654;37.592;2023-02-14T07:41:53;98413.03;;;-0.10;100.00
35443;BME280;21561;55.654;37.592;2023-02-14T07:44:20;98416.44;;;-0.08;100.00
35443;BME280;21561;55.654;37.592;2023-02-14T07:46:47;98421.53;;;-0.10;100.00
35443;BME280;21561;55.654;37.592;2023-02-14T07:49:14;98424.13;;;-0.07;100.00
35443;BME280;21561;55.654;37.592;2023-02-14T07:51:41;98420.78;;;-0.03;100.00
35443;BME280;21561;55.654;37.592;2023-02-14T07:54:08;98431.88;;;0.01;100.00
35443;BME280;21561;55.654;37.592;2023-02-14T07:56:35;98431.84;;;-0.02;100.00
35443;BME280;21561;55.654;37.592;2023-02-14T07:59:02;98431.75;;;-0.08;100.00
35443;BME280;21561;55.654;37.592;2023-02-14T08:01:29;98433.44;;;-0.07;100.00
35443;BME280;21561;55.654;37.592;2023-02-14T08:03:56;98433.63;;;0.02;100.00
35443;BME280;21561;55.654;37.592;2023-02-14T08:06:23;98437.03;;;0.04;100.00
35443;BME280;21561;55.654;37.592;2023-02-14T08:08:51;98434.56;;;0.10;100.00
35443;BME280;21561;55.654;37.592;2023-02-14T08:11:18;98432.06;;;0.13;100.00
35443;BME280;21561;55.654;37.592;2023-02-14T08:14:04;98425.34;;;0.18;100.00
35443;BME280;21561;55.654;37.592;2023-02-14T08:16:31;98443.25;;;0.20;100.00
35443;BME280;21561;55.654;37.592;2023-02-14T08:19:00;98443.28;;;0.22;100.00
35443;BME280;21561;55.654;37.592;2023-02-14T08:21:27;98446.66;;;0.22;100.00
35443;BME280;21561;55.654;37.592;2023-02-14T08:23:54;98449.25;;;0.24;100.00
35443;BME280;21561;55.654;37.592;2023-02-14T08:26:22;98446.75;;;0.28;100.00
35443;BME280;21561;55.654;37.592;2023-02-14T08:28:49;98446.88;;;0.36;100.00
35443;BME280;21561;55.654;37.592;2023-02-14T08:31:29;98452.94;;;0.44;100.00
35443;BME280;21561;55.654;37.592;2023-02-14T08:34:03;98455.34;;;0.35;100.00
35443;BME280;21561;55.654;37.592;2023-02-14T08:36:31;98460.47;;;0.35;100.00
35443;BME280;21561;55.654;37.592;2023-02-14T08:38:59;98451.06;;;0.34;100.00
35443;BME280;21561;55.654;37.592;2023-02-14T08:41:26;98458.34;;;0.08;100.00
35443;BME280;21561;55.654;37.592;2023-02-14T08:43:53;98481.84;;;-0.12;100.00
35443;BME280;21561;55.654;37.592;2023-02-14T08:46:20;98473.88;;;-0.29;100.00
35443;BME280;21561;55.654;37.592;2023-02-14T08:48:47;98482.34;;;-0.31;100.00
35443;BME280;21561;55.654;37.592;2023-02-14T08:51:15;98479.78;;;-0.33;100.00
35443;BME280;21561;55.654;37.592;2023-02-14T08:53:42;98482.31;;;-0.33;100.00
35443;BME280;21561;55.654;37.592;2023-02-14T08:56:11;98492.59;;;-0.30;100.00
35443;BME280;21561;55.654;37.592;2023-02-14T08:58:39;98482.31;;;-0.33;100.00
35443;BME280;21561;55.654;37.592;2023-02-14T09:01:14;98487.47;;;-0.30;100.00
35443;BME280;21561;55.654;37.592;2023-02-14T09:03:42;98491.66;;;-0.33;100.00
35443;BME280;21561;55.654;37.592;2023-02-14T09:06:12;98507.81;;;-0.33;100.00
35443;BME280;21561;55.654;37.592;2023-02-14T09:08:40;98516.41;;;-0.28;100.00
35443;BME280;21561;55.654;37.592;2023-02-14T09:11:13;98485.81;;;-0.28;100.00
35443;BME280;21561;55.654;37.592;2023-02-14T09:13:41;98511.25;;;-0.31;100.00
35443;BME280;21561;55.654;37.592;2023-02-14T09:16:10;98508.69;;;-0.31;100.00
35443;BME280;21561;55.654;37.592;2023-02-14T09:18:38;98504.38;;;-0.35;100.00
35443;BME280;21561;55.654;37.592;2023-02-14T09:21:09;98516.31;;;-0.34;100.00
35443;BME280;21561;55.654;37.592;2023-02-14T09:23:37;98511.25;;;-0.31;100.00
35443;BME280;21561;55.654;37.592;2023-02-14T09:26:06;98529.31;;;-0.18;100.00
35443;BME280;21561;55.654;37.592;2023-02-14T09:28:34;98523.53;;;-0.10;100.00
35443;BME280;21561;55.654;37.592;2023-02-14T09:31:22;98537.41;;;0.06;100.00
35443;BME280;21561;55.654;37.592;2023-02-14T09:33:50;98547.59;;;0.06;100.00
35443;BME280;21561;55.654;37.592;2023-02-14T09:36:35;98531.47;;;0.07;100.00
35443;BME280;21561;55.654;37.592;2023-02-14T09:39:21;98536.56;;;0.06;100.00
35443;BME280;21561;55.654;37.592;2023-02-14T09:45:01;98540.94;;;0.16;99.03
35443;BME280;21561;55.654;37.592;2023-02-14T09:47:52;98546.97;;;0.19;98.49
35443;BME280;21561;55.654;37.592;2023-02-14T09:50:47;98546.22;;;0.27;98.46
35443;BME280;21561;55.654;37.592;2023-02-14T09:53:34;98559.00;;;0.28;96.79
35443;BME280;21561;55.654;37.592;2023-02-14T09:56:13;98563.28;;;0.28;96.65
35443;BME280;21561;55.654;37.592;2023-02-14T10:01:33;98571.72;;;0.24;96.93
35443;BME280;21561;55.654;37.592;2023-02-14T10:06:48;98583.59;;;0.22;97.26
35443;BME280;21561;55.654;37.592;2023-02-14T10:12:22;98587.06;;;0.25;97.54
35443;BME280;21561;55.654;37.592;2023-02-14T10:14:52;98583.78;;;0.34;97.16
35443;BME280;21561;55.654;37.592;2023-02-14T10:17:28;98589.00;;;0.40;95.77
35443;BME280;21561;55.654;37.592;2023-02-14T10:20:00;98586.56;;;0.48;96.23
35443;BME280;21561;55.654;37.592;2023-02-14T10:22:42;98581.66;;;0.60;95.73
35443;BME280;21561;55.654;37.592;2023-02-14T10:25:23;98588.50;;;0.61;95.18
35443;BME280;21561;55.654;37.592;2023-02-14T10:27:55;98603.56;;;0.47;94.18
35443;BME280;21561;55.654;37.592;2023-02-14T10:30:23;98602.56;;;0.39;92.94
35443;BME280;21561;55.654;37.592;2023-02-14T10:33:16;98613.63;;;0.38;93.61
35443;BME280;21561;55.654;37.592;2023-02-14T10:41:02;98618.59;;;0.30;93.81
35443;BME280;21561;55.654;37.592;2023-02-14T10:54:58;98627.06;;;0.28;90.38
35443;BME280;21561;55.654;37.592;2023-02-14T10:57:44;98618.22;;;0.57;90.36
35443;BME280;21561;55.654;37.592;2023-02-14T11:00:25;98625.75;;;0.51;88.88
35443;BME280;21561;55.654;37.592;2023-02-14T11:03:00;98642.00;;;0.56;89.52
35443;BME280;21561;55.654;37.592;2023-02-14T11:05:38;98642.16;;;0.66;89.53
35443;BME280;21561;55.654;37.592;2023-02-14T11:08:26;98642.25;;;0.70;89.54
35443;BME280;21561;55.654;37.592;2023-02-14T11:11:23;98664.25;;;0.64;89.63
35443;BME280;21561;55.654;37.592;2023-02-14T11:13:53;98660.59;;;0.48;89.96
35443;BME280;21561;55.654;37.592;2023-02-14T11:16:37;98665.88;;;0.59;90.38
35443;BME280;21561;55.654;37.592;2023-02-14T11:21:43;98663.00;;;0.40;89.53
35443;BME280;21561;55.654;37.592;2023-02-14T11:24:30;98684.25;;;0.39;90.38
35443;BME280;21561;55.654;37.592;2023-02-14T11:27:01;98690.09;;;0.33;88.54
35443;BME280;21561;55.654;37.592;2023-02-14T11:29:29;98711.34;;;0.31;87.94
35443;BME280;21561;55.654;37.592;2023-02-14T11:32:06;98692.50;;;0.24;88.53
35443;BME280;21561;55.654;37.592;2023-02-14T11:34:36;98697.47;;;0.16;88.09
35443;BME280;21561;55.654;37.592;2023-02-14T11:37:24;98701.78;;;0.21;88.33
35443;BME280;21561;55.654;37.592;2023-02-14T11:39:54;98702.38;;;0.09;87.24
35443;BME280;21561;55.654;37.592;2023-02-14T11:42:42;98701.63;;;0.13;87.62
35443;BME280;21561;55.654;37.592;2023-02-14T11:45:32;98683.06;;;0.20;86.22
35443;BME280;21561;55.654;37.592;2023-02-14T11:48:15;98719.41;;;0.08;86.16
35443;BME280;21561;55.654;37.592;2023-02-14T11:50:56;98710.94;;;0.09;86.72
35443;BME280;21561;55.654;37.592;2023-02-14T11:53:26;98716.03;;;0.09;87.30
35443;BME280;21561;55.654;37.592;2023-02-14T11:55:55;98714.53;;;0.21;86.76
35443;BME280;21561;55.654;37.592;2023-02-14T11:58:53;98721.66;;;0.37;85.91
35443;BME280;21561;55.654;37.592;2023-02-14T12:01:27;98719.94;;;0.36;85.22
35443;BME280;21561;55.654;37.592;2023-02-14T12:03:58;98719.09;;;0.37;84.85
35443;BME280;21561;55.654;37.592;2023-02-14T12:06:27;98730.19;;;0.39;84.05
35443;BME280;21561;55.654;37.592;2023-02-14T12:09:24;98718.53;;;0.53;84.66
35443;BME280;21561;55.654;37.592;2023-02-14T12:12:03;98727.03;;;0.52;83.62
35443;BME280;21561;55.654;37.592;2023-02-14T12:14:41;98730.59;;;0.61;83.16
35443;BME280;21561;55.654;37.592;2023-02-14T12:22:12;98740.84;;;0.64;84.10
35443;BME280;21561;55.654;37.592;2023-02-14T12:25:10;98757.91;;;0.65;83.91
35443;BME280;21561;55.654;37.592;2023-02-14T12:30:13;98756.69;;;0.46;84.14
35443;BME280;21561;55.654;37.592;2023-02-14T12:32:49;98761.06;;;0.51;84.35
35443;BME280;21561;55.654;37.592;2023-02-14T12:44:24;98769.66;;;0.56;84.54
35443;BME280;21561;55.654;37.592;2023-02-14T12:49:53;98812.63;;;0.35;85.67
35443;BME280;21561;55.654;37.592;2023-02-14T12:52:39;98813.53;;;0.37;85.48
35443;BME280;21561;55.654;37.592;2023-02-14T12:55:37;98781.13;;;0.33;85.54
35443;BME280;21561;55.654;37.592;2023-02-14T12:58:43;98804.88;;;0.29;85.99
35443;BME280;21561;55.654;37.592;2023-02-14T13:06:30;98824.44;;;0.30;85.44
35443;BME280;21561;55.654;37.592;2023-02-14T13:15:11;98836.22;;;0.25;85.78
35443;BME280;21561;55.654;37.592;2023-02-14T13:17:55;98835.34;;;0.23;84.88
35443;BME280;21561;55.654;37.592;2023-02-14T13:20:41;98853.31;;;0.27;85.75
35443;BME280;21561;55.654;37.592;2023-02-14T13:23:34;98850.66;;;0.23;84.57
35443;BME280;21561;55.654;37.592;2023-02-14T13:26:12;98861.47;;;0.12;84.82
35443;BME280;21561;55.654;37.592;2023-02-14T13:29:02;98862.41;;;0.14;84.96
35443;BME280;21561;55.654;37.592;2023-02-14T13:31:30;98865.81;;;0.15;85.13
35443;BME280;21561;55.654;37.592;2023-02-14T13:34:02;98870.13;;;0.19;85.81
35443;BME280;21561;55.654;37.592;2023-02-14T13:36:35;98879.34;;;0.12;85.89
35443;BME280;21561;55.654;37.592;2023-02-14T13:39:03;98874.31;;;0.15;86.32
35443;BME280;21561;55.654;37.592;2023-02-14T13:41:30;98882.72;;;0.11;86.66
35443;BME280;21561;55.654;37.592;2023-02-14T13:43:59;98890.44;;;0.13;87.13
35443;BME280;21561;55.654;37.592;2023-02-14T13:51:49;98908.16;;;0.08;88.77
35443;BME280;21561;55.654;37.592;2023-02-14T13:54:31;98911.53;;;0.06;89.17
35443;BME280;21561;55.654;37.592;2023-02-14T13:57:00;98915.78;;;0.07;88.66
35443;BME280;21561;55.654;37.592;2023-02-14T13:59:46;98913.34;;;0.11;88.96
35443;BME280;21561;55.654;37.592;2023-02-14T14:05:47;98914.13;;;0.09;88.53
35443;BME280;21561;55.654;37.592;2023-02-14T14:10:48;98943.81;;;0.05;87.78
35443;BME280;21561;55.654;37.592;2023-02-14T14:22:13;98960.63;;;-0.03;87.67
35443;BME280;21561;55.654;37.592;2023-02-14T14:24:51;98967.38;;;-0.05;88.31
35443;BME280;21561;55.654;37.592;2023-02-14T14:27:26;98977.50;;;-0.08;88.46
35443;BME280;21561;55.654;37.592;2023-02-14T14:30:00;98984.25;;;-0.10;88.29
35443;BME280;21561;55.654;37.592;2023-02-14T14:32:37;98984.25;;;-0.10;88.86
35443;BME280;21561;55.654;37.592;2023-02-14T14:35:17;98995.31;;;-0.10;88.30
35443;BME280;21561;55.654;37.592;2023-02-14T14:37:50;99003.75;;;-0.12;88.57
35443;BME280;21561;55.654;37.592;2023-02-14T14:40:27;98974.78;;;-0.14;88.91
35443;BME280;21561;55.654;37.592;2023-02-14T14:42:59;99003.53;;;-0.20;88.76
35443;BME280;21561;55.654;37.592;2023-02-14T14:45:27;98988.25;;;-0.20;88.97
35443;BME280;21561;55.654;37.592;2023-02-14T14:48:00;98995.72;;;-0.28;89.56
35443;BME280;21561;55.654;37.592;2023-02-14T14:50:31;99002.69;;;-0.21;89.44
35443;BME280;21561;55.654;37.592;2023-02-14T14:53:16;98993.25;;;-0.25;89.97
35443;BME280;21561;55.654;37.592;2023-02-14T14:55:45;99002.56;;;-0.27;90.17
35443;BME280;21561;55.654;37.592;2023-02-14T14:58:46;99010.38;;;-0.19;90.15
35443;BME280;21561;55.654;37.592;2023-02-14T15:01:35;99006.94;;;-0.21;89.73
35443;BME280;21561;55.654;37.592;2023-02-14T15:04:10;99022.19;;;-0.23;89.68
35443;BME280;21561;55.654;37.592;2023-02-14T15:06:38;99026.41;;;-0.25;90.49
35443;BME280;21561;55.654;37.592;2023-02-14T15:09:30;99030.88;;;-0.14;90.38
35443;BME280;21561;55.654;37.592;2023-02-14T15:11:59;99036.66;;;-0.22;90.52